Conestee, SC

3:53 PM EST on January 26, 2015 (GMT -0500)
Gower Estates | Change Station
CLOSE
Current Station
Personal Weather Station
Location: Greenville, SC
Elevation: 886 ft
Nearby Weather Stations

Elev 886 ft 34.81 °N, 82.36 °W | Updated 6 seconds ago

Mostly Cloudy
Mostly Cloudy
51.1 °F
Feels Like 51.1 °F
N
0.2
Wind Variable Wind from WNW
Gusts 2.5 mph

Today
High -- | Low -- °F
--% Chance of Precip.
Yesterday
High -- | Low -- °F
Precip. -- in
7:31 AM 5:52 PM
Waxing Crescent, 46% visible
Pressure 29.67 in
Visibility 10.0 miles
Clouds Mostly Cloudy 5000 ft
Dew Point 31 °F
Humidity 45%
Rainfall 0.00 in
Snow Depth Not available.
UV 1.0 out of 12
Pollen .60 out of 12
Air Quality Not available.
Flu Activity Not available.
METAR KGYH 262047Z 33007KT 10SM BKN050 09/M04 A2967

More Conditions Fewer Conditions

Pressure 29.67 in
Visibility 10.0 miles
Clouds Mostly Cloudy 5000 ft
Dew Point 31 °F
Humidity 45%
Rainfall 0.00 in
Snow Depth Not available.
UV 1.0 out of 12
Pollen .60 out of 12
Air Quality Not available.
Flu Activity Not available.
METAR KGYH 262047Z 33007KT 10SM BKN050 09/M04 A2967

More Conditions Fewer Conditions

10-Day Weather Forecast

Almanac

Astronomy

Jan. 26, 2015 Rise Set
Actual Time
Civil Twilight
Nautical Twilight
Astronomical Twilight
Moon
Length of Visible Light
Length of Day
Tomorrow will be .
, % of the Moon is Illuminated

Today's Extremes

State Highs State Lows

Community

WunderPhotos

Upload Photos

1,790,351 photos uploaded!

WunderBlogs® & News

Nearby

Air Quality

  Air Quality AQ Index Pollutant
Not available.

Snow Depth

Station Depth Elevation

Earthquake Activity

City Distance Mag. Time & Date
Minimum magnitude displayed is 2.5.

Coastal Water Temperatures

Place Temperature

Nearby Weather Stations